sensor_id;sensor_type;location;lat;lon;timestamp;temperature;humidity
15239;DHT22;7722;53.274;9.500;2023-04-06T00:00:45;-0.30;99.90
15239;DHT22;7722;53.274;9.500;2023-04-06T00:03:13;-0.30;99.90
15239;DHT22;7722;53.274;9.500;2023-04-06T00:05:40;-0.30;99.90
15239;DHT22;7722;53.274;9.500;2023-04-06T00:08:08;-0.30;99.90
15239;DHT22;7722;53.274;9.500;2023-04-06T00:10:35;-0.30;99.90
15239;DHT22;7722;53.274;9.500;2023-04-06T00:13:02;-0.30;99.90
15239;DHT22;7722;53.274;9.500;2023-04-06T00:15:29;-0.30;99.90
15239;DHT22;7722;53.274;9.500;2023-04-06T00:17:56;-0.30;99.90
15239;DHT22;7722;53.274;9.500;2023-04-06T00:20:24;-0.30;99.90
15239;DHT22;7722;53.274;9.500;2023-04-06T00:22:52;-0.30;99.90
15239;DHT22;7722;53.274;9.500;2023-04-06T00:25:19;-0.30;99.90
15239;DHT22;7722;53.274;9.500;2023-04-06T00:27:46;-0.30;99.90
15239;DHT22;7722;53.274;9.500;2023-04-06T00:30:13;-0.20;99.90
15239;DHT22;7722;53.274;9.500;2023-04-06T00:32:40;-0.20;99.90
15239;DHT22;7722;53.274;9.500;2023-04-06T00:35:08;-0.20;99.90
15239;DHT22;7722;53.274;9.500;2023-04-06T00:37:37;-0.30;99.90
15239;DHT22;7722;53.274;9.500;2023-04-06T00:40:05;-0.40;99.90
15239;DHT22;7722;53.274;9.500;2023-04-06T00:42:33;-0.40;99.90
15239;DHT22;7722;53.274;9.500;2023-04-06T00:45:01;-0.40;99.90
15239;DHT22;7722;53.274;9.500;2023-04-06T00:47:28;-0.50;99.90
15239;DHT22;7722;53.274;9.500;2023-04-06T00:49:55;-0.50;99.90
15239;DHT22;7722;53.274;9.500;2023-04-06T00:52:23;-0.60;99.90
15239;DHT22;7722;53.274;9.500;2023-04-06T00:54:51;-0.60;99.90
15239;DHT22;7722;53.274;9.500;2023-04-06T00:57:18;-0.60;99.90
15239;DHT22;7722;53.274;9.500;2023-04-06T00:59:46;-0.50;99.90
15239;DHT22;7722;53.274;9.500;2023-04-06T01:02:13;-0.50;99.90
15239;DHT22;7722;53.274;9.500;2023-04-06T01:04:40;-0.60;99.90
15239;DHT22;7722;53.274;9.500;2023-04-06T01:07:07;-0.60;99.90
15239;DHT22;7722;53.274;9.500;2023-04-06T01:09:35;-0.60;99.90
15239;DHT22;7722;53.274;9.500;2023-04-06T01:12:03;-0.50;99.90
15239;DHT22;7722;53.274;9.500;2023-04-06T01:14:30;-0.60;99.90
15239;DHT22;7722;53.274;9.500;2023-04-06T01:16:58;-0.60;99.90
15239;DHT22;7722;53.274;9.500;2023-04-06T01:19:26;-0.60;99.90
15239;DHT22;7722;53.274;9.500;2023-04-06T01:21:53;-0.60;99.90
15239;DHT22;7722;53.274;9.500;2023-04-06T01:24:21;-0.60;99.90
15239;DHT22;7722;53.274;9.500;2023-04-06T01:26:48;-0.70;99.90
15239;DHT22;7722;53.274;9.500;2023-04-06T01:29:15;-0.80;99.90
15239;DHT22;7722;53.274;9.500;2023-04-06T01:31:42;-0.80;99.90
15239;DHT22;7722;53.274;9.500;2023-04-06T01:34:09;-0.90;99.90
15239;DHT22;7722;53.274;9.500;2023-04-06T01:36:36;-0.90;99.90
15239;DHT22;7722;53.274;9.500;2023-04-06T01:39:04;-0.90;99.90
15239;DHT22;7722;53.274;9.500;2023-04-06T01:41:32;-0.90;99.90
15239;DHT22;7722;53.274;9.500;2023-04-06T01:43:59;-0.90;99.90
15239;DHT22;7722;53.274;9.500;2023-04-06T01:46:26;-0.90;99.90
15239;DHT22;7722;53.274;9.500;2023-04-06T01:48:53;-0.90;99.90
15239;DHT22;7722;53.274;9.500;2023-04-06T01:51:20;-0.90;99.90
15239;DHT22;7722;53.274;9.500;2023-04-06T01:53:47;-0.90;99.90
15239;DHT22;7722;53.274;9.500;2023-04-06T01:56:15;-1.00;99.90
15239;DHT22;7722;53.274;9.500;2023-04-06T01:58:43;-1.00;99.90
15239;DHT22;7722;53.274;9.500;2023-04-06T02:01:10;-1.10;99.90
15239;DHT22;7722;53.274;9.500;2023-04-06T02:03:37;-1.10;99.90
15239;DHT22;7722;53.274;9.500;2023-04-06T02:06:04;-1.20;99.90
15239;DHT22;7722;53.274;9.500;2023-04-06T02:08:32;-1.20;99.90
15239;DHT22;7722;53.274;9.500;2023-04-06T02:10:59;-1.20;99.90
15239;DHT22;7722;53.274;9.500;2023-04-06T02:13:26;-1.30;99.90
15239;DHT22;7722;53.274;9.500;2023-04-06T02:15:55;-1.20;99.90
15239;DHT22;7722;53.274;9.500;2023-04-06T02:18:28;-1.30;99.90
15239;DHT22;7722;53.274;9.500;2023-04-06T02:20:55;-1.30;99.90
15239;DHT22;7722;53.274;9.500;2023-04-06T02:23:23;-1.30;99.90
15239;DHT22;7722;53.274;9.500;2023-04-06T02:25:54;-1.30;99.90
15239;DHT22;7722;53.274;9.500;2023-04-06T02:28:23;-1.40;99.90
15239;DHT22;7722;53.274;9.500;2023-04-06T02:30:50;-1.40;99.90
15239;DHT22;7722;53.274;9.500;2023-04-06T02:33:24;-1.40;99.90
15239;DHT22;7722;53.274;9.500;2023-04-06T02:35:52;-1.50;99.90
15239;DHT22;7722;53.274;9.500;2023-04-06T02:38:20;-1.50;99.90
15239;DHT22;7722;53.274;9.500;2023-04-06T02:40:47;-1.60;99.90
15239;DHT22;7722;53.274;9.500;2023-04-06T02:43:15;-1.50;99.90
15239;DHT22;7722;53.274;9.500;2023-04-06T02:45:44;-1.60;99.90
15239;DHT22;7722;53.274;9.500;2023-04-06T02:48:12;-1.60;99.90
15239;DHT22;7722;53.274;9.500;2023-04-06T02:50:41;-1.60;99.90
15239;DHT22;7722;53.274;9.500;2023-04-06T02:53:09;-1.60;99.90
15239;DHT22;7722;53.274;9.500;2023-04-06T02:55:38;-1.60;99.90
15239;DHT22;7722;53.274;9.500;2023-04-06T02:58:06;-1.60;99.90
15239;DHT22;7722;53.274;9.500;2023-04-06T03:00:36;-1.60;99.90
15239;DHT22;7722;53.274;9.500;2023-04-06T03:03:05;-1.60;99.90
15239;DHT22;7722;53.274;9.500;2023-04-06T03:05:33;-1.60;99.90
15239;DHT22;7722;53.274;9.500;2023-04-06T03:08:04;-1.60;99.90
15239;DHT22;7722;53.274;9.500;2023-04-06T03:10:32;-1.60;99.90
15239;DHT22;7722;53.274;9.500;2023-04-06T03:13:01;-1.60;99.90
15239;DHT22;7722;53.274;9.500;2023-04-06T03:15:30;-1.60;99.90
15239;DHT22;7722;53.274;9.500;2023-04-06T03:17:58;-1.60;99.90
15239;DHT22;7722;53.274;9.500;2023-04-06T03:20:25;-1.60;99.90
15239;DHT22;7722;53.274;9.500;2023-04-06T03:22:52;-1.60;99.90
15239;DHT22;7722;53.274;9.500;2023-04-06T03:25:20;-1.50;99.90
15239;DHT22;7722;53.274;9.500;2023-04-06T03:27:47;-1.50;99.90
15239;DHT22;7722;53.274;9.500;2023-04-06T03:30:14;-1.50;99.90
15239;DHT22;7722;53.274;9.500;2023-04-06T03:32:43;-1.50;99.90
15239;DHT22;7722;53.274;9.500;2023-04-06T03:35:10;-1.60;99.90
15239;DHT22;7722;53.274;9.500;2023-04-06T03:37:37;-1.60;99.90
15239;DHT22;7722;53.274;9.500;2023-04-06T03:40:05;-1.60;99.90
15239;DHT22;7722;53.274;9.500;2023-04-06T03:42:33;-1.50;99.90
15239;DHT22;7722;53.274;9.500;2023-04-06T03:45:00;-1.50;99.90
15239;DHT22;7722;53.274;9.500;2023-04-06T03:47:27;-1.60;99.90
15239;DHT22;7722;53.274;9.500;2023-04-06T03:49:54;-1.60;99.90
15239;DHT22;7722;53.274;9.500;2023-04-06T03:52:21;-1.60;99.90
15239;DHT22;7722;53.274;9.500;2023-04-06T03:54:49;-1.60;99.90
15239;DHT22;7722;53.274;9.500;2023-04-06T03:57:16;-1.70;99.90
15239;DHT22;7722;53.274;9.500;2023-04-06T03:59:44;-1.70;99.90
15239;DHT22;7722;53.274;9.500;2023-04-06T04:02:11;-1.70;99.90
15239;DHT22;7722;53.274;9.500;2023-04-06T04:04:39;-1.60;99.90
15239;DHT22;7722;53.274;9.500;2023-04-06T04:07:06;-1.70;99.90
15239;DHT22;7722;53.274;9.500;2023-04-06T04:09:33;-1.70;99.90
15239;DHT22;7722;53.274;9.500;2023-04-06T04:12:00;-1.70;99.90
15239;DHT22;7722;53.274;9.500;2023-04-06T04:14:27;-1.80;99.90
15239;DHT22;7722;53.274;9.500;2023-04-06T04:16:56;-1.80;99.90
15239;DHT22;7722;53.274;9.500;2023-04-06T04:19:23;-1.80;99.90
15239;DHT22;7722;53.274;9.500;2023-04-06T04:21:50;-1.90;99.90
15239;DHT22;7722;53.274;9.500;2023-04-06T04:24:17;-1.90;99.90
15239;DHT22;7722;53.274;9.500;2023-04-06T04:26:44;-1.90;99.90
15239;DHT22;7722;53.274;9.500;2023-04-06T04:29:11;-1.90;99.90
15239;DHT22;7722;53.274;9.500;2023-04-06T04:31:38;-1.90;99.90
15239;DHT22;7722;53.274;9.500;2023-04-06T04:34:06;-1.90;99.90
15239;DHT22;7722;53.274;9.500;2023-04-06T04:36:33;-1.90;99.90
15239;DHT22;7722;53.274;9.500;2023-04-06T04:39:01;-2.00;99.90
15239;DHT22;7722;53.274;9.500;2023-04-06T04:41:28;-2.00;99.90
15239;DHT22;7722;53.274;9.500;2023-04-06T04:43:55;-2.00;99.90
15239;DHT22;7722;53.274;9.500;2023-04-06T04:46:22;-2.00;99.90
15239;DHT22;7722;53.274;9.500;2023-04-06T04:48:49;-2.10;99.90
15239;DHT22;7722;53.274;9.500;2023-04-06T04:51:17;-2.10;99.90
15239;DHT22;7722;53.274;9.500;2023-04-06T04:53:45;-2.10;99.90
15239;DHT22;7722;53.274;9.500;2023-04-06T04:56:12;-2.00;99.90
15239;DHT22;7722;53.274;9.500;2023-04-06T04:58:39;-2.00;99.90
15239;DHT22;7722;53.274;9.500;2023-04-06T05:01:06;-1.90;99.90
15239;DHT22;7722;53.274;9.500;2023-04-06T05:03:33;-1.90;99.90
15239;DHT22;7722;53.274;9.500;2023-04-06T05:06:01;-1.90;99.90
15239;DHT22;7722;53.274;9.500;2023-04-06T05:08:29;-1.80;99.90
15239;DHT22;7722;53.274;9.500;2023-04-06T05:10:56;-1.80;99.90
15239;DHT22;7722;53.274;9.500;2023-04-06T05:13:23;-1.70;99.90
15239;DHT22;7722;53.274;9.500;2023-04-06T05:15:51;-1.70;99.90
15239;DHT22;7722;53.274;9.500;2023-04-06T05:18:18;-1.70;99.90
15239;DHT22;7722;53.274;9.500;2023-04-06T05:20:45;-1.70;99.90
15239;DHT22;7722;53.274;9.500;2023-04-06T05:23:12;-1.60;99.90
15239;DHT22;7722;53.274;9.500;2023-04-06T05:25:40;-1.70;99.90
15239;DHT22;7722;53.274;9.500;2023-04-06T05:28:07;-1.60;99.90
15239;DHT22;7722;53.274;9.500;2023-04-06T05:30:34;-1.60;99.90
15239;DHT22;7722;53.274;9.500;2023-04-06T05:33:02;-1.60;99.90
15239;DHT22;7722;53.274;9.500;2023-04-06T05:35:29;-1.60;99.90
15239;DHT22;7722;53.274;9.500;2023-04-06T05:37:56;-1.60;99.90
15239;DHT22;7722;53.274;9.500;2023-04-06T05:40:23;-1.50;99.90
15239;DHT22;7722;53.274;9.500;2023-04-06T05:42:51;-1.50;99.90
15239;DHT22;7722;53.274;9.500;2023-04-06T05:45:19;-1.40;99.90
15239;DHT22;7722;53.274;9.500;2023-04-06T05:47:46;-1.30;99.90
15239;DHT22;7722;53.274;9.500;2023-04-06T05:50:15;-1.20;99.90
15239;DHT22;7722;53.274;9.500;2023-04-06T05:52:42;-1.10;99.90
15239;DHT22;7722;53.274;9.500;2023-04-06T05:55:12;-1.00;99.90
15239;DHT22;7722;53.274;9.500;2023-04-06T05:57:39;-1.00;99.90
15239;DHT22;7722;53.274;9.500;2023-04-06T06:00:09;-0.90;99.90
15239;DHT22;7722;53.274;9.500;2023-04-06T06:02:36;-0.80;99.90
15239;DHT22;7722;53.274;9.500;2023-04-06T06:05:03;-0.80;99.90
15239;DHT22;7722;53.274;9.500;2023-04-06T06:07:31;-0.70;99.90
15239;DHT22;7722;53.274;9.500;2023-04-06T06:09:58;-0.60;99.90
15239;DHT22;7722;53.274;9.500;2023-04-06T06:12:25;-0.50;99.90
15239;DHT22;7722;53.274;9.500;2023-04-06T06:14:52;-0.40;99.90
15239;DHT22;7722;53.274;9.500;2023-04-06T06:17:21;-0.20;99.90
15239;DHT22;7722;53.274;9.500;2023-04-06T06:19:48;-0.10;99.90
15239;DHT22;7722;53.274;9.500;2023-04-06T06:22:15;0.10;99.90
15239;DHT22;7722;53.274;9.500;2023-04-06T06:24:42;0.20;99.90
15239;DHT22;7722;53.274;9.500;2023-04-06T06:27:09;0.40;99.90
15239;DHT22;7722;53.274;9.500;2023-04-06T06:29:36;0.60;99.90
15239;DHT22;7722;53.274;9.500;2023-04-06T06:32:03;0.70;99.90
15239;DHT22;7722;53.274;9.500;2023-04-06T06:34:31;0.80;99.90
15239;DHT22;7722;53.274;9.500;2023-04-06T06:36:58;1.00;99.90
15239;DHT22;7722;53.274;9.500;2023-04-06T06:39:26;1.10;99.90
15239;DHT22;7722;53.274;9.500;2023-04-06T06:41:53;1.20;99.90
15239;DHT22;7722;53.274;9.500;2023-04-06T06:44:20;1.30;99.90
15239;DHT22;7722;53.274;9.500;2023-04-06T06:46:49;1.40;99.90
15239;DHT22;7722;53.274;9.500;2023-04-06T06:49:16;1.60;99.90
15239;DHT22;7722;53.274;9.500;2023-04-06T06:51:45;1.70;99.90
15239;DHT22;7722;53.274;9.500;2023-04-06T06:54:13;1.80;99.90
15239;DHT22;7722;53.274;9.500;2023-04-06T06:56:40;2.00;99.90
15239;DHT22;7722;53.274;9.500;2023-04-06T06:59:07;2.10;99.90
15239;DHT22;7722;53.274;9.500;2023-04-06T07:01:34;2.30;99.90
15239;DHT22;7722;53.274;9.500;2023-04-06T07:04:01;2.40;99.90
15239;DHT22;7722;53.274;9.500;2023-04-06T07:06:28;2.50;99.90
15239;DHT22;7722;53.274;9.500;2023-04-06T07:08:57;2.60;99.90
15239;DHT22;7722;53.274;9.500;2023-04-06T07:11:24;2.80;99.90
15239;DHT22;7722;53.274;9.500;2023-04-06T07:13:51;2.90;99.90
15239;DHT22;7722;53.274;9.500;2023-04-06T07:16:18;3.00;99.90
15239;DHT22;7722;53.274;9.500;2023-04-06T07:18:45;3.20;99.90
15239;DHT22;7722;53.274;9.500;2023-04-06T07:21:12;3.40;99.90
15239;DHT22;7722;53.274;9.500;2023-04-06T07:23:39;3.50;99.90
15239;DHT22;7722;53.274;9.500;2023-04-06T07:26:08;3.80;99.90
15239;DHT22;7722;53.274;9.500;2023-04-06T07:28:35;3.90;99.90
15239;DHT22;7722;53.274;9.500;2023-04-06T07:31:02;4.00;99.90
15239;DHT22;7722;53.274;9.500;2023-04-06T07:33:29;4.20;99.90
15239;DHT22;7722;53.274;9.500;2023-04-06T07:35:56;4.30;99.90
15239;DHT22;7722;53.274;9.500;2023-04-06T07:38:24;4.50;99.90
15239;DHT22;7722;53.274;9.500;2023-04-06T07:40:51;4.80;99.90
15239;DHT22;7722;53.274;9.500;2023-04-06T07:43:20;4.90;99.90
15239;DHT22;7722;53.274;9.500;2023-04-06T07:45:47;5.10;99.80
15239;DHT22;7722;53.274;9.500;2023-04-06T07:48:14;5.30;98.90
15239;DHT22;7722;53.274;9.500;2023-04-06T07:50:41;5.40;98.20
15239;DHT22;7722;53.274;9.500;2023-04-06T07:53:08;5.60;98.10
15239;DHT22;7722;53.274;9.500;2023-04-06T07:55:36;5.80;97.70
15239;DHT22;7722;53.274;9.500;2023-04-06T07:58:03;6.10;97.90
15239;DHT22;7722;53.274;9.500;2023-04-06T08:00:31;6.40;96.70
15239;DHT22;7722;53.274;9.500;2023-04-06T08:02:59;6.50;96.20
15239;DHT22;7722;53.274;9.500;2023-04-06T08:05:26;6.70;96.10
15239;DHT22;7722;53.274;9.500;2023-04-06T08:07:53;6.80;94.80
15239;DHT22;7722;53.274;9.500;2023-04-06T08:10:20;6.90;94.50
15239;DHT22;7722;53.274;9.500;2023-04-06T08:12:47;7.10;93.40
15239;DHT22;7722;53.274;9.500;2023-04-06T08:15:14;7.30;93.20
15239;DHT22;7722;53.274;9.500;2023-04-06T08:17:45;7.40;92.40
15239;DHT22;7722;53.274;9.500;2023-04-06T08:20:12;7.60;92.70
15239;DHT22;7722;53.274;9.500;2023-04-06T08:22:39;7.80;92.30
15239;DHT22;7722;53.274;9.500;2023-04-06T08:25:06;7.90;91.70
15239;DHT22;7722;53.274;9.500;2023-04-06T08:27:33;8.00;91.10
15239;DHT22;7722;53.274;9.500;2023-04-06T08:30:00;8.00;90.20
15239;DHT22;7722;53.274;9.500;2023-04-06T08:32:28;8.10;90.70
15239;DHT22;7722;53.274;9.500;2023-04-06T08:34:57;8.30;90.00
15239;DHT22;7722;53.274;9.500;2023-04-06T08:37:24;8.30;90.10
15239;DHT22;7722;53.274;9.500;2023-04-06T08:39:51;8.50;88.80
15239;DHT22;7722;53.274;9.500;2023-04-06T08:42:20;8.60;87.60
15239;DHT22;7722;53.274;9.500;2023-04-06T08:44:49;8.80;88.40
15239;DHT22;7722;53.274;9.500;2023-04-06T08:47:16;9.00;87.70
15239;DHT22;7722;53.274;9.500;2023-04-06T08:49:44;9.10;87.00
15239;DHT22;7722;53.274;9.500;2023-04-06T08:52:15;9.20;83.50
15239;DHT22;7722;53.274;9.500;2023-04-06T08:54:44;9.20;83.10
15239;DHT22;7722;53.274;9.500;2023-04-06T08:57:11;9.40;82.90
15239;DHT22;7722;53.274;9.500;2023-04-06T08:59:39;9.30;80.00
15239;DHT22;7722;53.274;9.500;2023-04-06T09:02:08;9.30;79.20
15239;DHT22;7722;53.274;9.500;2023-04-06T09:04:40;9.50;79.80
15239;DHT22;7722;53.274;9.500;2023-04-06T09:07:07;9.60;78.90
15239;DHT22;7722;53.274;9.500;2023-04-06T09:09:35;9.60;77.50
15239;DHT22;7722;53.274;9.500;2023-04-06T09:12:03;9.70;77.00
15239;DHT22;7722;53.274;9.500;2023-04-06T09:14:35;9.80;75.50
15239;DHT22;7722;53.274;9.500;2023-04-06T09:17:03;9.80;74.70
15239;DHT22;7722;53.274;9.500;2023-04-06T09:19:30;9.90;74.60
15239;DHT22;7722;53.274;9.500;2023-04-06T09:22:04;10.00;72.90
15239;DHT22;7722;53.274;9.500;2023-04-06T09:24:44;9.90;73.20
15239;DHT22;7722;53.274;9.500;2023-04-06T09:27:12;10.10;73.10
15239;DHT22;7722;53.274;9.500;2023-04-06T09:29:39;10.30;73.10
15239;DHT22;7722;53.274;9.500;2023-04-06T09:32:07;10.60;73.70
15239;DHT22;7722;53.274;9.500;2023-04-06T09:34:37;10.60;73.10
15239;DHT22;7722;53.274;9.500;2023-04-06T09:37:12;10.60;70.50
15239;DHT22;7722;53.274;9.500;2023-04-06T09:39:40;10.60;71.10
15239;DHT22;7722;53.274;9.500;2023-04-06T09:42:08;10.80;71.20
15239;DHT22;7722;53.274;9.500;2023-04-06T09:44:35;10.90;69.40
15239;DHT22;7722;53.274;9.500;2023-04-06T09:47:05;10.90;70.10
15239;DHT22;7722;53.274;9.500;2023-04-06T09:49:33;11.00;69.90
15239;DHT22;7722;53.274;9.500;2023-04-06T09:52:02;11.10;70.30
15239;DHT22;7722;53.274;9.500;2023-04-06T09:54:31;11.20;69.70
15239;DHT22;7722;53.274;9.500;2023-04-06T09:57:03;11.20;69.00
15239;DHT22;7722;53.274;9.500;2023-04-06T09:59:42;11.40;68.30
15239;DHT22;7722;53.274;9.500;2023-04-06T10:02:18;11.70;69.90
15239;DHT22;7722;53.274;9.500;2023-04-06T10:04:53;11.90;68.00
15239;DHT22;7722;53.274;9.500;2023-04-06T10:07:23;11.90;66.00
15239;DHT22;7722;53.274;9.500;2023-04-06T10:09:53;11.90;66.00
15239;DHT22;7722;53.274;9.500;2023-04-06T10:12:21;11.90;67.50
15239;DHT22;7722;53.274;9.500;2023-04-06T10:14:49;12.00;66.80
15239;DHT22;7722;53.274;9.500;2023-04-06T10:17:21;12.10;65.60
15239;DHT22;7722;53.274;9.500;2023-04-06T10:19:53;12.20;64.80
15239;DHT22;7722;53.274;9.500;2023-04-06T10:22:26;12.20;65.20
15239;DHT22;7722;53.274;9.500;2023-04-06T10:25:00;12.40;65.20
15239;DHT22;7722;53.274;9.500;2023-04-06T10:27:30;12.40;64.20
15239;DHT22;7722;53.274;9.500;2023-04-06T10:30:02;12.60;65.10
15239;DHT22;7722;53.274;9.500;2023-04-06T10:32:34;12.60;64.20
15239;DHT22;7722;53.274;9.500;2023-04-06T10:35:08;12.80;65.50
15239;DHT22;7722;53.274;9.500;2023-04-06T10:37:51;12.90;66.00
15239;DHT22;7722;53.274;9.500;2023-04-06T10:40:23;13.30;65.90
15239;DHT22;7722;53.274;9.500;2023-04-06T10:42:54;13.20;63.50
15239;DHT22;7722;53.274;9.500;2023-04-06T10:45:24;13.10;62.90
15239;DHT22;7722;53.274;9.500;2023-04-06T10:47:53;13.30;63.30
15239;DHT22;7722;53.274;9.500;2023-04-06T10:50:20;13.50;61.50
15239;DHT22;7722;53.274;9.500;2023-04-06T10:52:47;13.50;61.50
15239;DHT22;7722;53.274;9.500;2023-04-06T10:55:26;13.40;61.80
15239;DHT22;7722;53.274;9.500;2023-04-06T10:57:53;13.50;61.00
15239;DHT22;7722;53.274;9.500;2023-04-06T11:00:22;13.60;61.60
15239;DHT22;7722;53.274;9.500;2023-04-06T11:02:49;13.70;60.40
15239;DHT22;7722;53.274;9.500;2023-04-06T11:05:16;13.70;60.40
15239;DHT22;7722;53.274;9.500;2023-04-06T11:07:44;13.60;62.60
15239;DHT22;7722;53.274;9.500;2023-04-06T11:10:11;13.70;61.40
15239;DHT22;7722;53.274;9.500;2023-04-06T11:12:38;13.60;61.10
15239;DHT22;7722;53.274;9.500;2023-04-06T11:15:06;13.70;61.70
15239;DHT22;7722;53.274;9.500;2023-04-06T11:17:36;13.70;59.10
15239;DHT22;7722;53.274;9.500;2023-04-06T11:20:09;13.90;61.60
15239;DHT22;7722;53.274;9.500;2023-04-06T11:22:36;14.20;61.10
15239;DHT22;7722;53.274;9.500;2023-04-06T11:25:07;14.40;59.00
15239;DHT22;7722;53.274;9.500;2023-04-06T11:27:34;14.20;59.10
15239;DHT22;7722;53.274;9.500;2023-04-06T11:30:02;14.40;58.80
15239;DHT22;7722;53.274;9.500;2023-04-06T11:32:29;14.60;59.10
15239;DHT22;7722;53.274;9.500;2023-04-06T11:35:07;14.40;59.60
15239;DHT22;7722;53.274;9.500;2023-04-06T11:37:37;14.70;59.50
15239;DHT22;7722;53.274;9.500;2023-04-06T11:40:08;14.40;58.20
15239;DHT22;7722;53.274;9.500;2023-04-06T11:42:36;14.20;57.80
15239;DHT22;7722;53.274;9.500;2023-04-06T11:45:03;14.00;57.10
15239;DHT22;7722;53.274;9.500;2023-04-06T11:47:33;14.30;58.70
15239;DHT22;7722;53.274;9.500;2023-04-06T11:50:07;14.50;58.30
15239;DHT22;7722;53.274;9.500;2023-04-06T11:52:35;14.30;57.00
15239;DHT22;7722;53.274;9.500;2023-04-06T11:55:11;14.40;56.80
15239;DHT22;7722;53.274;9.500;2023-04-06T11:57:38;14.40;57.70
15239;DHT22;7722;53.274;9.500;2023-04-06T12:00:06;14.60;57.90
15239;DHT22;7722;53.274;9.500;2023-04-06T12:02:35;14.80;58.00
15239;DHT22;7722;53.274;9.500;2023-04-06T12:05:02;15.10;56.60
15239;DHT22;7722;53.274;9.500;2023-04-06T12:07:31;15.20;56.80
15239;DHT22;7722;53.274;9.500;2023-04-06T12:09:58;15.00;57.20
15239;DHT22;7722;53.274;9.500;2023-04-06T12:12:25;15.20;55.40
15239;DHT22;7722;53.274;9.500;2023-04-06T12:14:53;15.10;54.00
15239;DHT22;7722;53.274;9.500;2023-04-06T12:17:20;15.40;55.50
15239;DHT22;7722;53.274;9.500;2023-04-06T12:19:47;15.40;55.50
15239;DHT22;7722;53.274;9.500;2023-04-06T12:22:14;15.80;57.20
15239;DHT22;7722;53.274;9.500;2023-04-06T12:24:42;15.80;55.30
15239;DHT22;7722;53.274;9.500;2023-04-06T12:27:09;15.90;55.00
15239;DHT22;7722;53.274;9.500;2023-04-06T12:29:37;15.90;54.90
15239;DHT22;7722;53.274;9.500;2023-04-06T12:32:04;16.30;55.20
15239;DHT22;7722;53.274;9.500;2023-04-06T12:34:31;16.20;53.30
15239;DHT22;7722;53.274;9.500;2023-04-06T12:36:58;16.10;53.70
15239;DHT22;7722;53.274;9.500;2023-04-06T12:39:26;15.80;53.20
15239;DHT22;7722;53.274;9.500;2023-04-06T12:41:55;16.00;53.30
15239;DHT22;7722;53.274;9.500;2023-04-06T12:44:23;16.40;53.80
15239;DHT22;7722;53.274;9.500;2023-04-06T12:46:50;16.30;54.70
15239;DHT22;7722;53.274;9.500;2023-04-06T12:49:18;16.30;53.90
15239;DHT22;7722;53.274;9.500;2023-04-06T12:51:45;16.40;54.30
15239;DHT22;7722;53.274;9.500;2023-04-06T12:54:12;16.20;53.70
15239;DHT22;7722;53.274;9.500;2023-04-06T12:56:39;16.60;52.50
15239;DHT22;7722;53.274;9.500;2023-04-06T12:59:08;16.70;52.10
15239;DHT22;7722;53.274;9.500;2023-04-06T13:01:35;17.00;52.00
15239;DHT22;7722;53.274;9.500;2023-04-06T13:04:02;17.40;51.40
15239;DHT22;7722;53.274;9.500;2023-04-06T13:06:29;17.40;51.60
15239;DHT22;7722;53.274;9.500;2023-04-06T13:08:56;17.70;51.10
15239;DHT22;7722;53.274;9.500;2023-04-06T13:11:23;17.70;48.50
15239;DHT22;7722;53.274;9.500;2023-04-06T13:13:51;17.70;49.20
15239;DHT22;7722;53.274;9.500;2023-04-06T13:16:20;17.60;50.10
15239;DHT22;7722;53.274;9.500;2023-04-06T13:18:47;17.70;48.70
15239;DHT22;7722;53.274;9.500;2023-04-06T13:21:14;17.60;48.70
15239;DHT22;7722;53.274;9.500;2023-04-06T13:23:42;16.90;49.70
15239;DHT22;7722;53.274;9.500;2023-04-06T13:26:12;17.20;50.20
15239;DHT22;7722;53.274;9.500;2023-04-06T13:28:46;17.50;49.30
15239;DHT22;7722;53.274;9.500;2023-04-06T13:31:13;17.60;48.20
15239;DHT22;7722;53.274;9.500;2023-04-06T13:33:42;17.80;49.40
15239;DHT22;7722;53.274;9.500;2023-04-06T13:36:09;17.80;49.30
15239;DHT22;7722;53.274;9.500;2023-04-06T13:38:36;18.40;48.60
15239;DHT22;7722;53.274;9.500;2023-04-06T13:41:04;18.40;48.60
15239;DHT22;7722;53.274;9.500;2023-04-06T13:43:31;18.10;47.80
15239;DHT22;7722;53.274;9.500;2023-04-06T13:45:58;18.60;48.60
15239;DHT22;7722;53.274;9.500;2023-04-06T13:48:26;18.50;47.40
15239;DHT22;7722;53.274;9.500;2023-04-06T13:50:55;18.00;48.40
15239;DHT22;7722;53.274;9.500;2023-04-06T13:53:22;18.40;47.90
15239;DHT22;7722;53.274;9.500;2023-04-06T13:55:53;18.60;45.40
15239;DHT22;7722;53.274;9.500;2023-04-06T13:58:20;18.90;47.90
15239;DHT22;7722;53.274;9.500;2023-04-06T14:00:47;19.70;45.90
15239;DHT22;7722;53.274;9.500;2023-04-06T14:03:14;19.40;44.40
15239;DHT22;7722;53.274;9.500;2023-04-06T14:05:41;19.70;44.30
15239;DHT22;7722;53.274;9.500;2023-04-06T14:08:09;19.80;45.10
15239;DHT22;7722;53.274;9.500;2023-04-06T14:10:39;19.50;45.40
15239;DHT22;7722;53.274;9.500;2023-04-06T14:13:07;18.80;46.90
15239;DHT22;7722;53.274;9.500;2023-04-06T14:15:35;19.20;47.00
15239;DHT22;7722;53.274;9.500;2023-04-06T14:18:02;19.10;46.60
15239;DHT22;7722;53.274;9.500;2023-04-06T14:20:31;19.10;44.00
15239;DHT22;7722;53.274;9.500;2023-04-06T14:22:59;19.40;43.20
15239;DHT22;7722;53.274;9.500;2023-04-06T14:25:28;19.50;42.30
15239;DHT22;7722;53.274;9.500;2023-04-06T14:27:57;19.30;43.50
15239;DHT22;7722;53.274;9.500;2023-04-06T14:30:24;19.10;43.80
15239;DHT22;7722;53.274;9.500;2023-04-06T14:32:51;18.70;43.70
15239;DHT22;7722;53.274;9.500;2023-04-06T14:35:18;18.80;45.00
15239;DHT22;7722;53.274;9.500;2023-04-06T14:37:45;19.50;43.90
15239;DHT22;7722;53.274;9.500;2023-04-06T14:40:12;19.50;44.10
15239;DHT22;7722;53.274;9.500;2023-04-06T14:42:41;19.50;45.10
15239;DHT22;7722;53.274;9.500;2023-04-06T14:45:08;19.50;44.00
15239;DHT22;7722;53.274;9.500;2023-04-06T14:47:35;19.20;45.10
15239;DHT22;7722;53.274;9.500;2023-04-06T14:50:03;19.60;45.10
15239;DHT22;7722;53.274;9.500;2023-04-06T14:52:30;19.80;43.60
15239;DHT22;7722;53.274;9.500;2023-04-06T14:54:57;19.90;42.30
15239;DHT22;7722;53.274;9.500;2023-04-06T14:57:24;20.70;42.10
15239;DHT22;7722;53.274;9.500;2023-04-06T14:59:54;21.10;41.00
15239;DHT22;7722;53.274;9.500;2023-04-06T15:02:21;20.40;41.50
15239;DHT22;7722;53.274;9.500;2023-04-06T15:04:48;19.40;42.40
15239;DHT22;7722;53.274;9.500;2023-04-06T15:07:16;19.00;43.00
15239;DHT22;7722;53.274;9.500;2023-04-06T15:09:43;19.10;44.70
15239;DHT22;7722;53.274;9.500;2023-04-06T15:12:10;19.20;42.70
15239;DHT22;7722;53.274;9.500;2023-04-06T15:14:37;19.20;43.30
15239;DHT22;7722;53.274;9.500;2023-04-06T15:17:05;18.30;43.80
15239;DHT22;7722;53.274;9.500;2023-04-06T15:19:32;18.20;43.80
15239;DHT22;7722;53.274;9.500;2023-04-06T15:21:59;18.40;44.60
15239;DHT22;7722;53.274;9.500;2023-04-06T15:24:26;19.50;43.90
15239;DHT22;7722;53.274;9.500;2023-04-06T15:26:53;19.90;41.80
15239;DHT22;7722;53.274;9.500;2023-04-06T15:29:20;19.80;42.50
15239;DHT22;7722;53.274;9.500;2023-04-06T15:31:47;20.00;43.30
15239;DHT22;7722;53.274;9.500;2023-04-06T15:34:15;20.00;40.30
15239;DHT22;7722;53.274;9.500;2023-04-06T15:36:43;19.30;41.10
15239;DHT22;7722;53.274;9.500;2023-04-06T15:39:11;18.90;41.20
15239;DHT22;7722;53.274;9.500;2023-04-06T15:41:39;18.60;41.80
15239;DHT22;7722;53.274;9.500;2023-04-06T15:44:06;18.60;43.00
15239;DHT22;7722;53.274;9.500;2023-04-06T15:46:33;19.10;41.10
15239;DHT22;7722;53.274;9.500;2023-04-06T15:49:00;18.40;41.20
15239;DHT22;7722;53.274;9.500;2023-04-06T15:51:28;17.90;40.70
15239;DHT22;7722;53.274;9.500;2023-04-06T15:53:56;17.90;41.90